sensor_id;sensor_type;location;lat;lon;timestamp;temperature;humidity
39655;DHT22;25336;59.944;11.010;2023-04-08T00:02:24;2.60;66.90
39655;DHT22;25336;59.944;11.010;2023-04-08T00:04:49;2.50;66.80
39655;DHT22;25336;59.944;11.010;2023-04-08T00:07:15;2.50;66.90
39655;DHT22;25336;59.944;11.010;2023-04-08T00:09:40;2.50;66.90
39655;DHT22;25336;59.944;11.010;2023-04-08T00:12:06;3.20;67.30
39655;DHT22;25336;59.944;11.010;2023-04-08T00:14:32;2.50;66.90
39655;DHT22;25336;59.944;11.010;2023-04-08T00:16:57;2.40;66.90
39655;DHT22;25336;59.944;11.010;2023-04-08T00:19:23;2.40;66.90
39655;DHT22;25336;59.944;11.010;2023-04-08T00:21:49;2.40;67.00
39655;DHT22;25336;59.944;11.010;2023-04-08T00:24:15;3.60;67.70
39655;DHT22;25336;59.944;11.010;2023-04-08T00:26:41;2.40;67.00
39655;DHT22;25336;59.944;11.010;2023-04-08T00:29:07;3.60;67.70
39655;DHT22;25336;59.944;11.010;2023-04-08T00:31:32;2.70;67.10
39655;DHT22;25336;59.944;11.010;2023-04-08T00:33:58;2.30;66.90
39655;DHT22;25336;59.944;11.010;2023-04-08T00:36:23;2.30;66.90
39655;DHT22;25336;59.944;11.010;2023-04-08T00:38:51;2.30;66.90
39655;DHT22;25336;59.944;11.010;2023-04-08T00:41:16;2.30;66.90
39655;DHT22;25336;59.944;11.010;2023-04-08T00:43:42;1.50;66.40
39655;DHT22;25336;59.944;11.010;2023-04-08T00:46:08;2.30;66.90
39655;DHT22;25336;59.944;11.010;2023-04-08T00:48:34;2.20;66.80
39655;DHT22;25336;59.944;11.010;2023-04-08T00:50:59;2.20;66.80
39655;DHT22;25336;59.944;11.010;2023-04-08T00:53:26;2.20;66.90
39655;DHT22;25336;59.944;11.010;2023-04-08T00:55:52;2.20;66.90
39655;DHT22;25336;59.944;11.010;2023-04-08T00:58:17;2.20;66.90
39655;DHT22;25336;59.944;11.010;2023-04-08T01:00:52;2.20;67.00
39655;DHT22;25336;59.944;11.010;2023-04-08T01:03:59;2.10;67.90
39655;DHT22;25336;59.944;11.010;2023-04-08T01:06:40;2.10;67.60
39655;DHT22;25336;59.944;11.010;2023-04-08T01:09:11;2.10;67.10
39655;DHT22;25336;59.944;11.010;2023-04-08T01:11:42;2.10;67.00
39655;DHT22;25336;59.944;11.010;2023-04-08T01:14:08;2.10;67.20
39655;DHT22;25336;59.944;11.010;2023-04-08T01:16:37;2.00;67.10
39655;DHT22;25336;59.944;11.010;2023-04-08T01:19:07;2.00;67.20
39655;DHT22;25336;59.944;11.010;2023-04-08T01:21:35;2.00;67.20
39655;DHT22;25336;59.944;11.010;2023-04-08T01:24:17;2.00;67.30
39655;DHT22;25336;59.944;11.010;2023-04-08T01:26:44;2.00;67.70
39655;DHT22;25336;59.944;11.010;2023-04-08T01:29:11;2.00;67.30
39655;DHT22;25336;59.944;11.010;2023-04-08T01:31:38;2.00;67.50
39655;DHT22;25336;59.944;11.010;2023-04-08T01:34:06;2.00;67.50
39655;DHT22;25336;59.944;11.010;2023-04-08T01:36:33;1.90;67.60
39655;DHT22;25336;59.944;11.010;2023-04-08T01:39:02;1.90;67.80
39655;DHT22;25336;59.944;11.010;2023-04-08T01:41:29;1.90;67.80
39655;DHT22;25336;59.944;11.010;2023-04-08T01:43:55;1.90;68.60
39655;DHT22;25336;59.944;11.010;2023-04-08T01:46:22;1.90;67.70
39655;DHT22;25336;59.944;11.010;2023-04-08T01:48:47;1.90;67.70
39655;DHT22;25336;59.944;11.010;2023-04-08T01:51:14;1.90;67.80
39655;DHT22;25336;59.944;11.010;2023-04-08T01:53:40;1.80;67.80
39655;DHT22;25336;59.944;11.010;2023-04-08T01:56:10;1.90;67.90
39655;DHT22;25336;59.944;11.010;2023-04-08T01:58:40;1.80;67.90
39655;DHT22;25336;59.944;11.010;2023-04-08T02:01:10;1.80;67.90
39655;DHT22;25336;59.944;11.010;2023-04-08T02:03:37;1.80;68.60
39655;DHT22;25336;59.944;11.010;2023-04-08T02:06:04;1.80;67.90
39655;DHT22;25336;59.944;11.010;2023-04-08T02:08:31;1.80;67.90
39655;DHT22;25336;59.944;11.010;2023-04-08T02:10:57;1.80;67.90
39655;DHT22;25336;59.944;11.010;2023-04-08T02:13:23;1.80;67.90
39655;DHT22;25336;59.944;11.010;2023-04-08T02:16:00;1.80;68.00
39655;DHT22;25336;59.944;11.010;2023-04-08T02:18:27;1.80;68.10
39655;DHT22;25336;59.944;11.010;2023-04-08T02:20:58;3.10;68.90
39655;DHT22;25336;59.944;11.010;2023-04-08T02:23:27;1.70;68.10
39655;DHT22;25336;59.944;11.010;2023-04-08T02:25:55;1.70;68.10
39655;DHT22;25336;59.944;11.010;2023-04-08T02:28:21;1.70;68.10
39655;DHT22;25336;59.944;11.010;2023-04-08T02:30:49;1.90;68.30
39655;DHT22;25336;59.944;11.010;2023-04-08T02:33:21;1.70;68.10
39655;DHT22;25336;59.944;11.010;2023-04-08T02:35:49;1.70;68.30
39655;DHT22;25336;59.944;11.010;2023-04-08T02:38:15;2.60;68.80
39655;DHT22;25336;59.944;11.010;2023-04-08T02:40:41;1.70;68.30
39655;DHT22;25336;59.944;11.010;2023-04-08T02:43:07;1.70;68.30
39655;DHT22;25336;59.944;11.010;2023-04-08T02:45:39;1.60;68.20
39655;DHT22;25336;59.944;11.010;2023-04-08T02:48:05;1.70;68.40
39655;DHT22;25336;59.944;11.010;2023-04-08T02:50:31;1.70;68.40
39655;DHT22;25336;59.944;11.010;2023-04-08T02:52:57;1.60;68.30
39655;DHT22;25336;59.944;11.010;2023-04-08T02:55:22;1.60;68.30
39655;DHT22;25336;59.944;11.010;2023-04-08T02:57:48;1.60;68.30
39655;DHT22;25336;59.944;11.010;2023-04-08T03:00:14;1.60;68.30
39655;DHT22;25336;59.944;11.010;2023-04-08T03:02:40;1.70;68.40
39655;DHT22;25336;59.944;11.010;2023-04-08T03:05:06;1.60;68.40
39655;DHT22;25336;59.944;11.010;2023-04-08T03:07:32;1.60;68.70
39655;DHT22;25336;59.944;11.010;2023-04-08T03:09:58;2.60;69.00
39655;DHT22;25336;59.944;11.010;2023-04-08T03:12:24;1.60;68.40
39655;DHT22;25336;59.944;11.010;2023-04-08T03:14:52;1.60;68.40
39655;DHT22;25336;59.944;11.010;2023-04-08T03:17:18;1.60;68.60
39655;DHT22;25336;59.944;11.010;2023-04-08T03:19:44;1.60;68.40
39655;DHT22;25336;59.944;11.010;2023-04-08T03:22:09;1.60;68.40
39655;DHT22;25336;59.944;11.010;2023-04-08T03:24:35;1.50;68.30
39655;DHT22;25336;59.944;11.010;2023-04-08T03:27:01;1.60;68.40
39655;DHT22;25336;59.944;11.010;2023-04-08T03:29:27;1.50;68.30
39655;DHT22;25336;59.944;11.010;2023-04-08T03:31:53;1.50;68.30
39655;DHT22;25336;59.944;11.010;2023-04-08T03:34:18;1.50;68.30
39655;DHT22;25336;59.944;11.010;2023-04-08T03:36:44;1.50;68.40
39655;DHT22;25336;59.944;11.010;2023-04-08T03:39:10;1.50;68.40
39655;DHT22;25336;59.944;11.010;2023-04-08T03:41:35;1.50;68.40
39655;DHT22;25336;59.944;11.010;2023-04-08T03:44:01;1.50;68.40
39655;DHT22;25336;59.944;11.010;2023-04-08T03:46:27;1.50;68.30
39655;DHT22;25336;59.944;11.010;2023-04-08T03:48:52;1.40;68.30
39655;DHT22;25336;59.944;11.010;2023-04-08T03:51:18;1.50;68.40
39655;DHT22;25336;59.944;11.010;2023-04-08T03:53:43;1.40;68.40
39655;DHT22;25336;59.944;11.010;2023-04-08T03:56:09;1.40;68.30
39655;DHT22;25336;59.944;11.010;2023-04-08T03:58:35;1.40;68.30
39655;DHT22;25336;59.944;11.010;2023-04-08T04:01:01;1.40;68.30
39655;DHT22;25336;59.944;11.010;2023-04-08T04:03:26;1.30;68.30
39655;DHT22;25336;59.944;11.010;2023-04-08T04:05:52;1.40;68.50
39655;DHT22;25336;59.944;11.010;2023-04-08T04:08:18;2.40;69.10
39655;DHT22;25336;59.944;11.010;2023-04-08T04:10:43;1.30;68.40
39655;DHT22;25336;59.944;11.010;2023-04-08T04:13:09;1.30;68.30
39655;DHT22;25336;59.944;11.010;2023-04-08T04:15:39;1.30;68.40
39655;DHT22;25336;59.944;11.010;2023-04-08T04:18:05;1.30;68.50
39655;DHT22;25336;59.944;11.010;2023-04-08T04:20:30;1.30;68.60
39655;DHT22;25336;59.944;11.010;2023-04-08T04:22:56;1.20;68.50
39655;DHT22;25336;59.944;11.010;2023-04-08T04:25:22;1.20;68.50
39655;DHT22;25336;59.944;11.010;2023-04-08T04:27:48;1.20;68.60
39655;DHT22;25336;59.944;11.010;2023-04-08T04:30:13;1.60;68.90
39655;DHT22;25336;59.944;11.010;2023-04-08T04:32:44;1.20;68.70
39655;DHT22;25336;59.944;11.010;2023-04-08T04:35:10;1.20;68.90
39655;DHT22;25336;59.944;11.010;2023-04-08T04:37:36;1.50;69.00
39655;DHT22;25336;59.944;11.010;2023-04-08T04:40:03;1.10;68.80
39655;DHT22;25336;59.944;11.010;2023-04-08T04:42:29;1.10;68.90
39655;DHT22;25336;59.944;11.010;2023-04-08T04:44:55;1.70;69.30
39655;DHT22;25336;59.944;11.010;2023-04-08T04:47:21;1.10;68.90
39655;DHT22;25336;59.944;11.010;2023-04-08T04:49:46;1.10;69.00
39655;DHT22;25336;59.944;11.010;2023-04-08T04:52:12;1.00;69.30
39655;DHT22;25336;59.944;11.010;2023-04-08T04:54:38;1.00;69.40
39655;DHT22;25336;59.944;11.010;2023-04-08T04:57:03;1.10;69.30
39655;DHT22;25336;59.944;11.010;2023-04-08T04:59:29;1.10;69.60
39655;DHT22;25336;59.944;11.010;2023-04-08T05:01:55;1.00;69.60
39655;DHT22;25336;59.944;11.010;2023-04-08T05:04:24;1.00;69.70
39655;DHT22;25336;59.944;11.010;2023-04-08T05:06:50;1.00;69.80
39655;DHT22;25336;59.944;11.010;2023-04-08T05:09:16;1.00;69.80
39655;DHT22;25336;59.944;11.010;2023-04-08T05:11:42;1.00;69.80
39655;DHT22;25336;59.944;11.010;2023-04-08T05:14:07;1.10;69.90
39655;DHT22;25336;59.944;11.010;2023-04-08T05:16:33;1.20;70.00
39655;DHT22;25336;59.944;11.010;2023-04-08T05:18:59;1.10;69.90
39655;DHT22;25336;59.944;11.010;2023-04-08T05:21:25;0.50;69.60
39655;DHT22;25336;59.944;11.010;2023-04-08T05:23:52;1.10;70.00
39655;DHT22;25336;59.944;11.010;2023-04-08T05:26:21;1.20;70.00
39655;DHT22;25336;59.944;11.010;2023-04-08T05:28:48;1.10;70.00
39655;DHT22;25336;59.944;11.010;2023-04-08T05:31:18;2.30;70.70
39655;DHT22;25336;59.944;11.010;2023-04-08T05:33:44;1.20;70.00
39655;DHT22;25336;59.944;11.010;2023-04-08T05:36:11;1.30;70.00
39655;DHT22;25336;59.944;11.010;2023-04-08T05:38:37;1.30;70.00
39655;DHT22;25336;59.944;11.010;2023-04-08T05:41:03;1.30;70.00
39655;DHT22;25336;59.944;11.010;2023-04-08T05:43:28;1.30;70.00
39655;DHT22;25336;59.944;11.010;2023-04-08T05:45:54;1.40;70.20
39655;DHT22;25336;59.944;11.010;2023-04-08T05:48:19;1.40;70.10
39655;DHT22;25336;59.944;11.010;2023-04-08T05:50:45;1.00;69.90
39655;DHT22;25336;59.944;11.010;2023-04-08T05:53:13;2.50;70.80
39655;DHT22;25336;59.944;11.010;2023-04-08T05:55:39;1.50;70.00
39655;DHT22;25336;59.944;11.010;2023-04-08T05:58:05;1.60;70.20
39655;DHT22;25336;59.944;11.010;2023-04-08T06:00:31;1.60;70.10
39655;DHT22;25336;59.944;11.010;2023-04-08T06:02:57;1.60;70.20
39655;DHT22;25336;59.944;11.010;2023-04-08T06:05:22;1.70;70.40
39655;DHT22;25336;59.944;11.010;2023-04-08T06:07:48;1.70;70.30
39655;DHT22;25336;59.944;11.010;2023-04-08T06:10:13;1.80;70.30
39655;DHT22;25336;59.944;11.010;2023-04-08T06:12:39;1.80;70.30
39655;DHT22;25336;59.944;11.010;2023-04-08T06:15:06;1.90;70.40
39655;DHT22;25336;59.944;11.010;2023-04-08T06:17:32;2.70;70.60
39655;DHT22;25336;59.944;11.010;2023-04-08T06:20:00;2.00;70.20
39655;DHT22;25336;59.944;11.010;2023-04-08T06:22:26;2.00;70.20
39655;DHT22;25336;59.944;11.010;2023-04-08T06:24:51;2.10;70.10
39655;DHT22;25336;59.944;11.010;2023-04-08T06:27:17;2.10;70.00
39655;DHT22;25336;59.944;11.010;2023-04-08T06:29:42;2.20;70.00
39655;DHT22;25336;59.944;11.010;2023-04-08T06:32:08;2.30;69.90
39655;DHT22;25336;59.944;11.010;2023-04-08T06:34:34;2.30;69.70
39655;DHT22;25336;59.944;11.010;2023-04-08T06:36:59;2.40;69.70
39655;DHT22;25336;59.944;11.010;2023-04-08T06:39:25;2.50;69.60
39655;DHT22;25336;59.944;11.010;2023-04-08T06:41:51;2.50;69.60
39655;DHT22;25336;59.944;11.010;2023-04-08T06:44:19;2.60;70.50
39655;DHT22;25336;59.944;11.010;2023-04-08T06:46:44;2.70;69.50
39655;DHT22;25336;59.944;11.010;2023-04-08T06:49:11;2.70;69.20
39655;DHT22;25336;59.944;11.010;2023-04-08T06:51:37;3.40;69.50
39655;DHT22;25336;59.944;11.010;2023-04-08T06:54:03;2.80;69.10
39655;DHT22;25336;59.944;11.010;2023-04-08T06:56:28;2.80;68.90
39655;DHT22;25336;59.944;11.010;2023-04-08T06:58:54;2.90;68.80
39655;DHT22;25336;59.944;11.010;2023-04-08T07:01:20;3.80;69.30
39655;DHT22;25336;59.944;11.010;2023-04-08T07:03:45;3.00;68.70
39655;DHT22;25336;59.944;11.010;2023-04-08T07:06:11;3.00;68.70
39655;DHT22;25336;59.944;11.010;2023-04-08T07:08:36;3.10;68.60
39655;DHT22;25336;59.944;11.010;2023-04-08T07:11:03;3.10;68.50
39655;DHT22;25336;59.944;11.010;2023-04-08T07:13:29;3.20;68.60
39655;DHT22;25336;59.944;11.010;2023-04-08T07:15:55;3.20;68.50
39655;DHT22;25336;59.944;11.010;2023-04-08T07:18:21;3.30;68.40
39655;DHT22;25336;59.944;11.010;2023-04-08T07:20:50;3.30;68.40
39655;DHT22;25336;59.944;11.010;2023-04-08T07:23:17;3.40;68.30
39655;DHT22;25336;59.944;11.010;2023-04-08T07:25:43;3.50;68.30
39655;DHT22;25336;59.944;11.010;2023-04-08T07:28:08;3.60;68.20
39655;DHT22;25336;59.944;11.010;2023-04-08T07:30:34;3.60;68.10
39655;DHT22;25336;59.944;11.010;2023-04-08T07:32:59;3.60;67.90
39655;DHT22;25336;59.944;11.010;2023-04-08T07:35:25;3.70;67.90
39655;DHT22;25336;59.944;11.010;2023-04-08T07:37:52;3.80;68.00
39655;DHT22;25336;59.944;11.010;2023-04-08T07:40:18;4.30;68.20
39655;DHT22;25336;59.944;11.010;2023-04-08T07:42:44;4.90;68.60
39655;DHT22;25336;59.944;11.010;2023-04-08T07:45:10;4.00;67.90
39655;DHT22;25336;59.944;11.010;2023-04-08T07:47:35;4.00;67.80
39655;DHT22;25336;59.944;11.010;2023-04-08T07:50:03;4.10;67.60
39655;DHT22;25336;59.944;11.010;2023-04-08T07:52:32;4.20;67.60
39655;DHT22;25336;59.944;11.010;2023-04-08T07:54:58;4.90;67.80
39655;DHT22;25336;59.944;11.010;2023-04-08T07:57:24;5.20;67.90
39655;DHT22;25336;59.944;11.010;2023-04-08T07:59:50;4.40;67.10
39655;DHT22;25336;59.944;11.010;2023-04-08T08:02:16;4.50;67.20
39655;DHT22;25336;59.944;11.010;2023-04-08T08:04:41;4.60;67.00
39655;DHT22;25336;59.944;11.010;2023-04-08T08:07:07;4.60;66.70
39655;DHT22;25336;59.944;11.010;2023-04-08T08:09:33;5.90;67.30
39655;DHT22;25336;59.944;11.010;2023-04-08T08:11:58;4.80;66.60
39655;DHT22;25336;59.944;11.010;2023-04-08T08:14:24;4.90;66.40
39655;DHT22;25336;59.944;11.010;2023-04-08T08:16:51;4.90;66.30
39655;DHT22;25336;59.944;11.010;2023-04-08T08:19:19;5.10;66.20
39655;DHT22;25336;59.944;11.010;2023-04-08T08:21:44;5.10;65.90
39655;DHT22;25336;59.944;11.010;2023-04-08T08:24:10;5.20;65.50
39655;DHT22;25336;59.944;11.010;2023-04-08T08:26:36;5.30;65.30
39655;DHT22;25336;59.944;11.010;2023-04-08T08:29:02;5.40;65.30
39655;DHT22;25336;59.944;11.010;2023-04-08T08:31:28;5.50;65.10
39655;DHT22;25336;59.944;11.010;2023-04-08T08:33:53;5.60;65.00
39655;DHT22;25336;59.944;11.010;2023-04-08T08:36:19;5.60;64.90
39655;DHT22;25336;59.944;11.010;2023-04-08T08:38:44;6.30;65.10
39655;DHT22;25336;59.944;11.010;2023-04-08T08:41:10;5.90;64.50
39655;DHT22;25336;59.944;11.010;2023-04-08T08:43:36;5.90;64.10
39655;DHT22;25336;59.944;11.010;2023-04-08T08:46:02;6.00;64.00
39655;DHT22;25336;59.944;11.010;2023-04-08T08:48:28;6.10;63.60
39655;DHT22;25336;59.944;11.010;2023-04-08T08:50:53;6.20;63.70
39655;DHT22;25336;59.944;11.010;2023-04-08T08:53:19;6.30;63.40
39655;DHT22;25336;59.944;11.010;2023-04-08T08:55:47;6.40;63.20
39655;DHT22;25336;59.944;11.010;2023-04-08T08:58:13;6.50;63.00
39655;DHT22;25336;59.944;11.010;2023-04-08T09:00:41;6.50;62.70
39655;DHT22;25336;59.944;11.010;2023-04-08T09:03:13;6.60;62.60
39655;DHT22;25336;59.944;11.010;2023-04-08T09:08:35;6.80;62.00
39655;DHT22;25336;59.944;11.010;2023-04-08T09:11:14;6.90;61.50
39655;DHT22;25336;59.944;11.010;2023-04-08T09:13:40;7.00;61.20
39655;DHT22;25336;59.944;11.010;2023-04-08T09:16:08;7.20;61.60
39655;DHT22;25336;59.944;11.010;2023-04-08T09:18:38;8.30;61.60
39655;DHT22;25336;59.944;11.010;2023-04-08T09:21:06;7.30;60.70
39655;DHT22;25336;59.944;11.010;2023-04-08T09:23:40;7.50;60.50
39655;DHT22;25336;59.944;11.010;2023-04-08T09:26:22;7.60;59.90
39655;DHT22;25336;59.944;11.010;2023-04-08T09:29:02;7.60;59.50
39655;DHT22;25336;59.944;11.010;2023-04-08T09:31:30;7.80;59.50
39655;DHT22;25336;59.944;11.010;2023-04-08T09:33:58;7.90;59.60
39655;DHT22;25336;59.944;11.010;2023-04-08T09:36:24;8.00;59.30
39655;DHT22;25336;59.944;11.010;2023-04-08T09:38:52;8.50;59.40
39655;DHT22;25336;59.944;11.010;2023-04-08T09:41:19;9.10;59.40
39655;DHT22;25336;59.944;11.010;2023-04-08T09:43:55;9.40;59.40
39655;DHT22;25336;59.944;11.010;2023-04-08T09:52:09;8.70;58.10
39655;DHT22;25336;59.944;11.010;2023-04-08T10:00:17;8.70;57.50
39655;DHT22;25336;59.944;11.010;2023-04-08T10:03:03;8.80;57.80
39655;DHT22;25336;59.944;11.010;2023-04-08T10:05:31;9.50;57.40
39655;DHT22;25336;59.944;11.010;2023-04-08T10:07:57;8.90;56.80
39655;DHT22;25336;59.944;11.010;2023-04-08T10:10:25;9.00;57.00
39655;DHT22;25336;59.944;11.010;2023-04-08T10:12:51;9.10;57.00
39655;DHT22;25336;59.944;11.010;2023-04-08T10:20:44;9.20;56.30
39655;DHT22;25336;59.944;11.010;2023-04-08T10:23:14;9.30;56.30
39655;DHT22;25336;59.944;11.010;2023-04-08T10:33:31;9.60;55.20
39655;DHT22;25336;59.944;11.010;2023-04-08T10:36:24;8.80;54.40
39655;DHT22;25336;59.944;11.010;2023-04-08T10:38:50;10.50;55.30
39655;DHT22;25336;59.944;11.010;2023-04-08T10:41:23;9.90;55.70
39655;DHT22;25336;59.944;11.010;2023-04-08T10:43:49;9.90;55.10
39655;DHT22;25336;59.944;11.010;2023-04-08T10:46:14;10.00;54.90
39655;DHT22;25336;59.944;11.010;2023-04-08T10:48:41;10.10;54.60
39655;DHT22;25336;59.944;11.010;2023-04-08T10:51:07;10.10;54.00
39655;DHT22;25336;59.944;11.010;2023-04-08T10:53:34;10.20;54.70
39655;DHT22;25336;59.944;11.010;2023-04-08T10:56:10;10.30;54.50
39655;DHT22;25336;59.944;11.010;2023-04-08T10:58:53;10.40;54.30
39655;DHT22;25336;59.944;11.010;2023-04-08T11:01:22;10.50;54.70
39655;DHT22;25336;59.944;11.010;2023-04-08T11:03:48;10.60;54.30
39655;DHT22;25336;59.944;11.010;2023-04-08T11:06:15;10.60;54.00
39655;DHT22;25336;59.944;11.010;2023-04-08T11:08:40;10.70;53.40
39655;DHT22;25336;59.944;11.010;2023-04-08T11:11:07;10.80;53.50
39655;DHT22;25336;59.944;11.010;2023-04-08T11:13:44;10.70;53.30
39655;DHT22;25336;59.944;11.010;2023-04-08T11:16:10;11.50;51.90
39655;DHT22;25336;59.944;11.010;2023-04-08T11:18:37;11.00;52.30
39655;DHT22;25336;59.944;11.010;2023-04-08T11:21:08;11.10;51.40
39655;DHT22;25336;59.944;11.010;2023-04-08T11:23:35;11.10;51.10
39655;DHT22;25336;59.944;11.010;2023-04-08T11:26:00;11.20;51.40
39655;DHT22;25336;59.944;11.010;2023-04-08T11:28:27;11.30;51.10
39655;DHT22;25336;59.944;11.010;2023-04-08T11:30:53;11.40;49.50
39655;DHT22;25336;59.944;11.010;2023-04-08T11:33:19;11.40;48.70
39655;DHT22;25336;59.944;11.010;2023-04-08T11:35:49;11.50;48.40
39655;DHT22;25336;59.944;11.010;2023-04-08T11:38:15;11.60;47.60
39655;DHT22;25336;59.944;11.010;2023-04-08T11:40:58;11.60;47.90
39655;DHT22;25336;59.944;11.010;2023-04-08T11:43:24;11.70;48.40
39655;DHT22;25336;59.944;11.010;2023-04-08T11:45:50;11.80;47.90
39655;DHT22;25336;59.944;11.010;2023-04-08T11:48:16;11.80;48.10
39655;DHT22;25336;59.944;11.010;2023-04-08T11:50:43;11.80;47.50
39655;DHT22;25336;59.944;11.010;2023-04-08T11:53:28;11.90;47.50
39655;DHT22;25336;59.944;11.010;2023-04-08T11:55:54;11.90;46.50
39655;DHT22;25336;59.944;11.010;2023-04-08T11:58:20;12.00;46.90
39655;DHT22;25336;59.944;11.010;2023-04-08T12:00:46;12.10;47.50
39655;DHT22;25336;59.944;11.010;2023-04-08T12:03:12;12.10;46.80
39655;DHT22;25336;59.944;11.010;2023-04-08T12:05:38;12.20;46.30
39655;DHT22;25336;59.944;11.010;2023-04-08T12:08:03;12.20;46.40
39655;DHT22;25336;59.944;11.010;2023-04-08T12:10:29;12.30;46.20
39655;DHT22;25336;59.944;11.010;2023-04-08T12:12:55;12.40;45.60
39655;DHT22;25336;59.944;11.010;2023-04-08T12:15:21;12.40;44.10
39655;DHT22;25336;59.944;11.010;2023-04-08T12:17:46;12.40;44.60
39655;DHT22;25336;59.944;11.010;2023-04-08T12:20:12;12.50;43.90
39655;DHT22;25336;59.944;11.010;2023-04-08T12:22:38;12.50;44.10
39655;DHT22;25336;59.944;11.010;2023-04-08T12:25:04;12.60;43.70
39655;DHT22;25336;59.944;11.010;2023-04-08T12:27:30;12.60;43.80
39655;DHT22;25336;59.944;11.010;2023-04-08T12:30:00;12.60;43.80
39655;DHT22;25336;59.944;11.010;2023-04-08T12:32:26;12.70;43.70
39655;DHT22;25336;59.944;11.010;2023-04-08T12:34:51;12.80;43.10
39655;DHT22;25336;59.944;11.010;2023-04-08T12:37:17;12.70;43.20
39655;DHT22;25336;59.944;11.010;2023-04-08T12:39:42;12.80;43.20
39655;DHT22;25336;59.944;11.010;2023-04-08T12:42:08;12.90;42.90
39655;DHT22;25336;59.944;11.010;2023-04-08T12:44:34;12.90;42.70
39655;DHT22;25336;59.944;11.010;2023-04-08T12:46:59;13.00;42.50
39655;DHT22;25336;59.944;11.010;2023-04-08T12:49:25;13.00;42.40
39655;DHT22;25336;59.944;11.010;2023-04-08T12:51:51;13.00;41.10
39655;DHT22;25336;59.944;11.010;2023-04-08T12:54:18;13.10;42.10
39655;DHT22;25336;59.944;11.010;2023-04-08T12:56:43;13.10;40.80
39655;DHT22;25336;59.944;11.010;2023-04-08T12:59:10;13.10;41.10
39655;DHT22;25336;59.944;11.010;2023-04-08T13:01:35;13.20;41.80
39655;DHT22;25336;59.944;11.010;2023-04-08T13:04:01;13.10;41.00
39655;DHT22;25336;59.944;11.010;2023-04-08T13:06:27;13.20;41.30
39655;DHT22;25336;59.944;11.010;2023-04-08T13:08:53;13.20;41.40
39655;DHT22;25336;59.944;11.010;2023-04-08T13:11:19;13.20;41.10
39655;DHT22;25336;59.944;11.010;2023-04-08T13:13:45;14.10;40.60
39655;DHT22;25336;59.944;11.010;2023-04-08T13:16:12;13.30;40.60
39655;DHT22;25336;59.944;11.010;2023-04-08T13:18:38;13.30;39.40
39655;DHT22;25336;59.944;11.010;2023-04-08T13:21:05;13.30;39.60
39655;DHT22;25336;59.944;11.010;2023-04-08T13:23:32;13.40;40.60
39655;DHT22;25336;59.944;11.010;2023-04-08T13:25:58;13.40;40.40
39655;DHT22;25336;59.944;11.010;2023-04-08T13:28:23;13.40;40.20
39655;DHT22;25336;59.944;11.010;2023-04-08T13:30:49;13.50;40.10
39655;DHT22;25336;59.944;11.010;2023-04-08T13:33:15;13.50;40.00
39655;DHT22;25336;59.944;11.010;2023-04-08T13:35:41;13.50;40.10
39655;DHT22;25336;59.944;11.010;2023-04-08T13:38:07;13.50;39.70
39655;DHT22;25336;59.944;11.010;2023-04-08T13:40:33;13.60;39.20
39655;DHT22;25336;59.944;11.010;2023-04-08T13:42:58;13.60;39.70
39655;DHT22;25336;59.944;11.010;2023-04-08T13:45:24;13.60;39.30
39655;DHT22;25336;59.944;11.010;2023-04-08T13:47:50;13.60;39.00
39655;DHT22;25336;59.944;11.010;2023-04-08T13:50:16;13.60;38.50
39655;DHT22;25336;59.944;11.010;2023-04-08T13:52:42;13.60;38.70
39655;DHT22;25336;59.944;11.010;2023-04-08T13:55:08;13.70;38.20
39655;DHT22;25336;59.944;11.010;2023-04-08T13:57:34;14.00;38.60
39655;DHT22;25336;59.944;11.010;2023-04-08T14:00:00;13.70;38.30
39655;DHT22;25336;59.944;11.010;2023-04-08T14:02:25;13.70;38.60
39655;DHT22;25336;59.944;11.010;2023-04-08T14:04:51;13.80;37.50
39655;DHT22;25336;59.944;11.010;2023-04-08T14:07:17;13.80;38.30
39655;DHT22;25336;59.944;11.010;2023-04-08T14:09:44;13.80;37.10
39655;DHT22;25336;59.944;11.010;2023-04-08T14:12:09;13.80;37.70
39655;DHT22;25336;59.944;11.010;2023-04-08T14:14:35;13.80;37.40
39655;DHT22;25336;59.944;11.010;2023-04-08T14:17:01;13.90;37.40
39655;DHT22;25336;59.944;11.010;2023-04-08T14:19:26;13.90;37.00
39655;DHT22;25336;59.944;11.010;2023-04-08T14:21:52;13.90;37.20
39655;DHT22;25336;59.944;11.010;2023-04-08T14:24:18;14.00;37.00
39655;DHT22;25336;59.944;11.010;2023-04-08T14:26:43;14.00;37.10
39655;DHT22;25336;59.944;11.010;2023-04-08T14:29:09;14.00;37.30
39655;DHT22;25336;59.944;11.010;2023-04-08T14:31:35;14.00;37.50
39655;DHT22;25336;59.944;11.010;2023-04-08T14:34:01;14.10;37.50
39655;DHT22;25336;59.944;11.010;2023-04-08T14:36:27;14.10;37.40
39655;DHT22;25336;59.944;11.010;2023-04-08T14:38:54;14.20;37.00
39655;DHT22;25336;59.944;11.010;2023-04-08T14:41:20;14.20;37.00
39655;DHT22;25336;59.944;11.010;2023-04-08T14:43:47;14.30;36.70
39655;DHT22;25336;59.944;11.010;2023-04-08T14:46:12;14.30;36.20
39655;DHT22;25336;59.944;11.010;2023-04-08T14:48:38;14.30;36.80
39655;DHT22;25336;59.944;11.010;2023-04-08T14:51:04;15.30;36.90
39655;DHT22;25336;59.944;11.010;2023-04-08T14:53:29;14.30;36.10
39655;DHT22;25336;59.944;11.010;2023-04-08T14:55:55;14.30;34.80
39655;DHT22;25336;59.944;11.010;2023-04-08T14:58:22;14.40;36.10
39655;DHT22;25336;59.944;11.010;2023-04-08T15:00:47;14.30;36.10
39655;DHT22;25336;59.944;11.010;2023-04-08T15:03:14;14.40;36.40
39655;DHT22;25336;59.944;11.010;2023-04-08T15:05:40;14.40;36.00
39655;DHT22;25336;59.944;11.010;2023-04-08T15:08:07;14.40;35.80
39655;DHT22;25336;59.944;11.010;2023-04-08T15:10:33;14.50;35.60
39655;DHT22;25336;59.944;11.010;2023-04-08T15:12:59;14.50;35.90
39655;DHT22;25336;59.944;11.010;2023-04-08T15:15:24;14.60;35.50
39655;DHT22;25336;59.944;11.010;2023-04-08T15:17:50;14.60;35.20
39655;DHT22;25336;59.944;11.010;2023-04-08T15:20:16;14.60;35.30
39655;DHT22;25336;59.944;11.010;2023-04-08T15:22:43;14.60;34.60
39655;DHT22;25336;59.944;11.010;2023-04-08T15:25:09;14.60;33.60
39655;DHT22;25336;59.944;11.010;2023-04-08T15:27:35;14.70;34.20
39655;DHT22;25336;59.944;11.010;2023-04-08T15:30:02;14.70;34.60
39655;DHT22;25336;59.944;11.010;2023-04-08T15:32:28;14.70;34.30
39655;DHT22;25336;59.944;11.010;2023-04-08T15:34:54;14.70;33.60
39655;DHT22;25336;59.944;11.010;2023-04-08T15:37:20;14.70;34.70
39655;DHT22;25336;59.944;11.010;2023-04-08T15:39:47;14.70;34.30
39655;DHT22;25336;59.944;11.010;2023-04-08T15:42:12;14.80;34.80
39655;DHT22;25336;59.944;11.010;2023-04-08T15:44:38;14.80;34.50
39655;DHT22;25336;59.944;11.010;2023-04-08T15:47:04;15.30;34.70
39655;DHT22;25336;59.944;11.010;2023-04-08T15:49:29;14.90;34.00
39655;DHT22;25336;59.944;11.010;2023-04-08T15:51:55;14.90;34.50